sensor_id;sensor_type;location;lat;lon;timestamp;temperature;humidity
8953;DHT22;4511;50.890;8.054;2022-09-13T00:01:06;16.20;99.90
8953;DHT22;4511;50.890;8.054;2022-09-13T00:03:34;16.10;99.90
8953;DHT22;4511;50.890;8.054;2022-09-13T00:06:09;16.20;99.90
8953;DHT22;4511;50.890;8.054;2022-09-13T00:08:36;16.20;99.90
8953;DHT22;4511;50.890;8.054;2022-09-13T00:11:03;16.20;99.90
8953;DHT22;4511;50.890;8.054;2022-09-13T00:13:30;16.20;99.90
8953;DHT22;4511;50.890;8.054;2022-09-13T00:15:57;16.10;99.90
8953;DHT22;4511;50.890;8.054;2022-09-13T00:18:25;16.00;99.90
8953;DHT22;4511;50.890;8.054;2022-09-13T00:21:04;16.00;99.90
8953;DHT22;4511;50.890;8.054;2022-09-13T00:23:31;16.00;99.90
8953;DHT22;4511;50.890;8.054;2022-09-13T00:26:06;16.00;99.90
8953;DHT22;4511;50.890;8.054;2022-09-13T00:28:33;15.90;99.90
8953;DHT22;4511;50.890;8.054;2022-09-13T00:31:01;15.90;99.90
8953;DHT22;4511;50.890;8.054;2022-09-13T00:33:28;16.00;99.90
8953;DHT22;4511;50.890;8.054;2022-09-13T00:35:55;15.80;99.90
8953;DHT22;4511;50.890;8.054;2022-09-13T00:38:23;15.80;99.90
8953;DHT22;4511;50.890;8.054;2022-09-13T00:40:50;15.90;99.90
8953;DHT22;4511;50.890;8.054;2022-09-13T00:43:19;15.80;99.90
8953;DHT22;4511;50.890;8.054;2022-09-13T00:45:47;15.80;99.90
8953;DHT22;4511;50.890;8.054;2022-09-13T00:48:19;15.70;99.90
8953;DHT22;4511;50.890;8.054;2022-09-13T00:50:50;15.70;99.90
8953;DHT22;4511;50.890;8.054;2022-09-13T00:53:20;15.80;99.90
8953;DHT22;4511;50.890;8.054;2022-09-13T00:55:53;15.80;99.90
8953;DHT22;4511;50.890;8.054;2022-09-13T00:58:24;15.80;99.90
8953;DHT22;4511;50.890;8.054;2022-09-13T01:00:54;15.70;99.90
8953;DHT22;4511;50.890;8.054;2022-09-13T01:03:24;15.60;99.90
8953;DHT22;4511;50.890;8.054;2022-09-13T01:05:55;15.70;99.90
8953;DHT22;4511;50.890;8.054;2022-09-13T01:08:23;15.80;99.90
8953;DHT22;4511;50.890;8.054;2022-09-13T01:10:52;15.70;99.90
8953;DHT22;4511;50.890;8.054;2022-09-13T01:13:24;15.70;99.90
8953;DHT22;4511;50.890;8.054;2022-09-13T01:15:52;15.60;99.90
8953;DHT22;4511;50.890;8.054;2022-09-13T01:18:19;15.60;99.90
8953;DHT22;4511;50.890;8.054;2022-09-13T01:20:58;15.60;99.90
8953;DHT22;4511;50.890;8.054;2022-09-13T01:23:47;15.50;99.90
8953;DHT22;4511;50.890;8.054;2022-09-13T01:30:04;15.70;99.90
8953;DHT22;4511;50.890;8.054;2022-09-13T01:32:37;15.60;99.90
8953;DHT22;4511;50.890;8.054;2022-09-13T01:35:13;15.50;99.90
8953;DHT22;4511;50.890;8.054;2022-09-13T01:37:50;15.40;99.90
8953;DHT22;4511;50.890;8.054;2022-09-13T01:40:38;15.50;99.90
8953;DHT22;4511;50.890;8.054;2022-09-13T01:43:19;15.50;99.90
8953;DHT22;4511;50.890;8.054;2022-09-13T01:45:57;15.50;99.90
8953;DHT22;4511;50.890;8.054;2022-09-13T01:48:35;15.60;99.90
8953;DHT22;4511;50.890;8.054;2022-09-13T01:51:05;15.60;99.90
8953;DHT22;4511;50.890;8.054;2022-09-13T01:53:42;15.60;99.90
8953;DHT22;4511;50.890;8.054;2022-09-13T01:56:19;15.60;99.90
8953;DHT22;4511;50.890;8.054;2022-09-13T01:58:51;15.70;99.90
8953;DHT22;4511;50.890;8.054;2022-09-13T02:01:22;15.70;99.90
8953;DHT22;4511;50.890;8.054;2022-09-13T02:03:54;15.60;99.90
8953;DHT22;4511;50.890;8.054;2022-09-13T02:06:26;15.60;99.90
8953;DHT22;4511;50.890;8.054;2022-09-13T02:08:58;15.60;99.90
8953;DHT22;4511;50.890;8.054;2022-09-13T02:11:26;15.60;99.90
8953;DHT22;4511;50.890;8.054;2022-09-13T02:13:58;15.60;99.90
8953;DHT22;4511;50.890;8.054;2022-09-13T02:16:30;15.70;99.90
8953;DHT22;4511;50.890;8.054;2022-09-13T02:19:00;15.70;99.90
8953;DHT22;4511;50.890;8.054;2022-09-13T02:21:30;15.70;99.90
8953;DHT22;4511;50.890;8.054;2022-09-13T02:24:01;15.70;99.90
8953;DHT22;4511;50.890;8.054;2022-09-13T02:26:29;15.70;99.90
8953;DHT22;4511;50.890;8.054;2022-09-13T02:28:59;15.70;99.90
8953;DHT22;4511;50.890;8.054;2022-09-13T02:31:31;15.80;99.90
8953;DHT22;4511;50.890;8.054;2022-09-13T02:34:02;15.60;99.90
8953;DHT22;4511;50.890;8.054;2022-09-13T02:36:35;15.60;99.90
8953;DHT22;4511;50.890;8.054;2022-09-13T02:39:07;15.50;99.90
8953;DHT22;4511;50.890;8.054;2022-09-13T02:41:40;15.60;99.90
8953;DHT22;4511;50.890;8.054;2022-09-13T02:44:11;15.60;99.90
8953;DHT22;4511;50.890;8.054;2022-09-13T02:47:13;15.60;99.90
8953;DHT22;4511;50.890;8.054;2022-09-13T02:49:54;15.60;99.90
8953;DHT22;4511;50.890;8.054;2022-09-13T02:52:32;15.50;99.90
8953;DHT22;4511;50.890;8.054;2022-09-13T02:55:07;15.60;99.90
8953;DHT22;4511;50.890;8.054;2022-09-13T02:57:44;15.60;99.90
8953;DHT22;4511;50.890;8.054;2022-09-13T03:00:14;15.60;99.90
8953;DHT22;4511;50.890;8.054;2022-09-13T03:02:43;15.70;99.90
8953;DHT22;4511;50.890;8.054;2022-09-13T03:05:10;15.70;99.90
8953;DHT22;4511;50.890;8.054;2022-09-13T03:07:37;15.70;99.90
8953;DHT22;4511;50.890;8.054;2022-09-13T03:10:06;15.70;99.90
8953;DHT22;4511;50.890;8.054;2022-09-13T03:12:46;15.70;99.90
8953;DHT22;4511;50.890;8.054;2022-09-13T03:15:26;15.70;99.90
8953;DHT22;4511;50.890;8.054;2022-09-13T03:18:06;15.70;99.90
8953;DHT22;4511;50.890;8.054;2022-09-13T03:20:45;15.70;99.90
8953;DHT22;4511;50.890;8.054;2022-09-13T03:23:41;15.70;99.90
8953;DHT22;4511;50.890;8.054;2022-09-13T03:26:25;15.60;99.90
8953;DHT22;4511;50.890;8.054;2022-09-13T03:29:05;15.60;99.90
8953;DHT22;4511;50.890;8.054;2022-09-13T03:31:37;15.60;99.90
8953;DHT22;4511;50.890;8.054;2022-09-13T03:34:12;15.70;99.90
8953;DHT22;4511;50.890;8.054;2022-09-13T03:36:44;15.70;99.90
8953;DHT22;4511;50.890;8.054;2022-09-13T03:39:20;15.70;99.90
8953;DHT22;4511;50.890;8.054;2022-09-13T03:41:51;15.70;99.90
8953;DHT22;4511;50.890;8.054;2022-09-13T03:44:21;15.80;99.90
8953;DHT22;4511;50.890;8.054;2022-09-13T03:46:50;15.80;99.90
8953;DHT22;4511;50.890;8.054;2022-09-13T03:49:20;15.80;99.90
8953;DHT22;4511;50.890;8.054;2022-09-13T03:51:50;15.80;99.90
8953;DHT22;4511;50.890;8.054;2022-09-13T03:54:20;15.50;99.90
8953;DHT22;4511;50.890;8.054;2022-09-13T03:57:10;15.50;99.90
8953;DHT22;4511;50.890;8.054;2022-09-13T03:59:40;15.50;99.90
8953;DHT22;4511;50.890;8.054;2022-09-13T04:02:07;15.60;99.90
8953;DHT22;4511;50.890;8.054;2022-09-13T04:04:37;15.60;99.90
8953;DHT22;4511;50.890;8.054;2022-09-13T04:07:04;15.60;99.90
8953;DHT22;4511;50.890;8.054;2022-09-13T04:09:31;15.70;99.90
8953;DHT22;4511;50.890;8.054;2022-09-13T04:11:58;15.70;99.90
8953;DHT22;4511;50.890;8.054;2022-09-13T04:14:24;15.60;99.90
8953;DHT22;4511;50.890;8.054;2022-09-13T04:16:53;15.60;99.90
8953;DHT22;4511;50.890;8.054;2022-09-13T04:19:20;15.60;99.90
8953;DHT22;4511;50.890;8.054;2022-09-13T04:21:49;15.70;99.90
8953;DHT22;4511;50.890;8.054;2022-09-13T04:24:17;15.70;99.90
8953;DHT22;4511;50.890;8.054;2022-09-13T04:26:47;15.70;99.90
8953;DHT22;4511;50.890;8.054;2022-09-13T04:29:14;15.70;99.90
8953;DHT22;4511;50.890;8.054;2022-09-13T04:31:40;15.70;99.90
8953;DHT22;4511;50.890;8.054;2022-09-13T04:34:07;15.80;99.90
8953;DHT22;4511;50.890;8.054;2022-09-13T04:36:34;15.80;99.90
8953;DHT22;4511;50.890;8.054;2022-09-13T04:39:03;15.80;99.90
8953;DHT22;4511;50.890;8.054;2022-09-13T04:41:29;15.80;99.90
8953;DHT22;4511;50.890;8.054;2022-09-13T04:43:59;15.80;99.90
8953;DHT22;4511;50.890;8.054;2022-09-13T04:46:26;15.60;99.90
8953;DHT22;4511;50.890;8.054;2022-09-13T04:48:52;15.60;99.90
8953;DHT22;4511;50.890;8.054;2022-09-13T04:51:19;15.60;99.90
8953;DHT22;4511;50.890;8.054;2022-09-13T04:53:51;15.60;99.90
8953;DHT22;4511;50.890;8.054;2022-09-13T04:56:20;15.60;99.90
8953;DHT22;4511;50.890;8.054;2022-09-13T04:58:47;15.70;99.90
8953;DHT22;4511;50.890;8.054;2022-09-13T05:01:16;15.70;99.90
8953;DHT22;4511;50.890;8.054;2022-09-13T05:03:43;15.70;99.90
8953;DHT22;4511;50.890;8.054;2022-09-13T05:06:11;15.60;99.90
8953;DHT22;4511;50.890;8.054;2022-09-13T05:08:38;15.70;99.90
8953;DHT22;4511;50.890;8.054;2022-09-13T05:11:06;15.80;99.90
8953;DHT22;4511;50.890;8.054;2022-09-13T05:13:34;15.90;99.90
8953;DHT22;4511;50.890;8.054;2022-09-13T05:16:03;16.20;99.90
8953;DHT22;4511;50.890;8.054;2022-09-13T05:18:32;16.10;99.90
8953;DHT22;4511;50.890;8.054;2022-09-13T05:20:59;16.10;99.90
8953;DHT22;4511;50.890;8.054;2022-09-13T05:23:27;16.20;99.90
8953;DHT22;4511;50.890;8.054;2022-09-13T05:25:55;16.10;99.90
8953;DHT22;4511;50.890;8.054;2022-09-13T05:28:23;15.90;99.90
8953;DHT22;4511;50.890;8.054;2022-09-13T05:30:58;15.80;99.90
8953;DHT22;4511;50.890;8.054;2022-09-13T05:33:27;15.80;99.90
8953;DHT22;4511;50.890;8.054;2022-09-13T05:35:54;15.80;99.90
8953;DHT22;4511;50.890;8.054;2022-09-13T05:38:21;15.80;99.90
8953;DHT22;4511;50.890;8.054;2022-09-13T05:40:53;15.80;99.90
8953;DHT22;4511;50.890;8.054;2022-09-13T05:43:20;15.80;99.90
8953;DHT22;4511;50.890;8.054;2022-09-13T05:45:47;15.80;99.90
8953;DHT22;4511;50.890;8.054;2022-09-13T05:48:15;15.80;99.90
8953;DHT22;4511;50.890;8.054;2022-09-13T05:50:42;15.90;99.90
8953;DHT22;4511;50.890;8.054;2022-09-13T05:53:09;15.90;99.90
8953;DHT22;4511;50.890;8.054;2022-09-13T05:55:36;15.90;99.90
8953;DHT22;4511;50.890;8.054;2022-09-13T05:58:02;15.70;99.90
8953;DHT22;4511;50.890;8.054;2022-09-13T06:00:29;15.80;99.90
8953;DHT22;4511;50.890;8.054;2022-09-13T06:02:56;15.80;99.90
8953;DHT22;4511;50.890;8.054;2022-09-13T06:05:25;15.90;99.90
8953;DHT22;4511;50.890;8.054;2022-09-13T06:07:52;15.90;99.90
8953;DHT22;4511;50.890;8.054;2022-09-13T06:10:18;15.90;99.90
8953;DHT22;4511;50.890;8.054;2022-09-13T06:12:45;15.90;99.90
8953;DHT22;4511;50.890;8.054;2022-09-13T06:15:12;16.00;99.90
8953;DHT22;4511;50.890;8.054;2022-09-13T06:17:40;16.00;99.90
8953;DHT22;4511;50.890;8.054;2022-09-13T06:20:07;16.00;99.90
8953;DHT22;4511;50.890;8.054;2022-09-13T06:22:36;16.00;99.90
8953;DHT22;4511;50.890;8.054;2022-09-13T06:25:04;16.00;99.90
8953;DHT22;4511;50.890;8.054;2022-09-13T06:27:31;16.10;99.90
8953;DHT22;4511;50.890;8.054;2022-09-13T06:29:57;16.10;99.90
8953;DHT22;4511;50.890;8.054;2022-09-13T06:32:24;16.20;99.90
8953;DHT22;4511;50.890;8.054;2022-09-13T06:34:51;16.30;99.90
8953;DHT22;4511;50.890;8.054;2022-09-13T06:37:17;16.30;99.90
8953;DHT22;4511;50.890;8.054;2022-09-13T06:39:46;16.30;99.90
8953;DHT22;4511;50.890;8.054;2022-09-13T06:42:13;16.10;99.90
8953;DHT22;4511;50.890;8.054;2022-09-13T06:44:39;16.10;99.90
8953;DHT22;4511;50.890;8.054;2022-09-13T06:47:06;16.10;99.90
8953;DHT22;4511;50.890;8.054;2022-09-13T06:49:33;16.20;99.90
8953;DHT22;4511;50.890;8.054;2022-09-13T06:51:59;16.20;99.90
8953;DHT22;4511;50.890;8.054;2022-09-13T06:54:26;16.30;99.90
8953;DHT22;4511;50.890;8.054;2022-09-13T06:56:54;16.40;99.90
8953;DHT22;4511;50.890;8.054;2022-09-13T06:59:21;16.40;99.90
8953;DHT22;4511;50.890;8.054;2022-09-13T07:01:48;16.30;99.90
8953;DHT22;4511;50.890;8.054;2022-09-13T07:04:16;16.40;99.90
8953;DHT22;4511;50.890;8.054;2022-09-13T07:06:45;16.50;99.90
8953;DHT22;4511;50.890;8.054;2022-09-13T07:09:13;16.40;99.90
8953;DHT22;4511;50.890;8.054;2022-09-13T07:11:42;16.50;99.90
8953;DHT22;4511;50.890;8.054;2022-09-13T07:14:13;16.50;99.90
8953;DHT22;4511;50.890;8.054;2022-09-13T07:16:40;16.70;99.90
8953;DHT22;4511;50.890;8.054;2022-09-13T07:19:11;16.80;99.90
8953;DHT22;4511;50.890;8.054;2022-09-13T07:21:38;16.90;99.90
8953;DHT22;4511;50.890;8.054;2022-09-13T07:24:05;16.90;99.90
8953;DHT22;4511;50.890;8.054;2022-09-13T07:26:32;17.00;99.90
8953;DHT22;4511;50.890;8.054;2022-09-13T07:29:00;17.10;99.90
8953;DHT22;4511;50.890;8.054;2022-09-13T07:31:30;17.10;99.90
8953;DHT22;4511;50.890;8.054;2022-09-13T07:33:59;17.10;99.90
8953;DHT22;4511;50.890;8.054;2022-09-13T07:36:27;17.10;99.90
8953;DHT22;4511;50.890;8.054;2022-09-13T07:38:54;17.20;99.90
8953;DHT22;4511;50.890;8.054;2022-09-13T07:41:22;17.20;99.90
8953;DHT22;4511;50.890;8.054;2022-09-13T07:43:50;17.40;99.90
8953;DHT22;4511;50.890;8.054;2022-09-13T07:46:19;17.40;99.90
8953;DHT22;4511;50.890;8.054;2022-09-13T07:48:48;17.50;99.90
8953;DHT22;4511;50.890;8.054;2022-09-13T07:51:19;17.50;99.90
8953;DHT22;4511;50.890;8.054;2022-09-13T07:53:48;17.70;99.90
8953;DHT22;4511;50.890;8.054;2022-09-13T07:56:16;17.70;99.90
8953;DHT22;4511;50.890;8.054;2022-09-13T07:58:45;17.70;99.90
8953;DHT22;4511;50.890;8.054;2022-09-13T08:01:14;17.70;99.90
8953;DHT22;4511;50.890;8.054;2022-09-13T08:03:42;17.80;99.90
8953;DHT22;4511;50.890;8.054;2022-09-13T08:06:10;17.90;99.90
8953;DHT22;4511;50.890;8.054;2022-09-13T08:08:37;18.00;99.90
8953;DHT22;4511;50.890;8.054;2022-09-13T08:11:05;18.10;99.90
8953;DHT22;4511;50.890;8.054;2022-09-13T08:13:32;18.20;99.90
8953;DHT22;4511;50.890;8.054;2022-09-13T08:16:04;18.30;99.90
8953;DHT22;4511;50.890;8.054;2022-09-13T08:18:31;18.40;99.90
8953;DHT22;4511;50.890;8.054;2022-09-13T08:20:59;18.40;99.90
8953;DHT22;4511;50.890;8.054;2022-09-13T08:23:27;18.40;99.90
8953;DHT22;4511;50.890;8.054;2022-09-13T08:25:59;18.40;99.90
8953;DHT22;4511;50.890;8.054;2022-09-13T08:28:26;18.40;99.90
8953;DHT22;4511;50.890;8.054;2022-09-13T08:30:53;18.40;99.90
8953;DHT22;4511;50.890;8.054;2022-09-13T08:33:20;18.50;99.90
8953;DHT22;4511;50.890;8.054;2022-09-13T08:35:50;18.60;99.90
8953;DHT22;4511;50.890;8.054;2022-09-13T08:38:18;18.70;99.90
8953;DHT22;4511;50.890;8.054;2022-09-13T08:40:51;18.80;99.90
8953;DHT22;4511;50.890;8.054;2022-09-13T08:43:27;18.80;99.90
8953;DHT22;4511;50.890;8.054;2022-09-13T08:46:00;18.90;99.90
8953;DHT22;4511;50.890;8.054;2022-09-13T08:48:32;18.90;99.90
8953;DHT22;4511;50.890;8.054;2022-09-13T08:51:03;19.10;99.90
8953;DHT22;4511;50.890;8.054;2022-09-13T08:53:44;19.20;99.90
8953;DHT22;4511;50.890;8.054;2022-09-13T08:56:19;19.30;99.90
8953;DHT22;4511;50.890;8.054;2022-09-13T08:58:56;19.50;99.90
8953;DHT22;4511;50.890;8.054;2022-09-13T09:01:37;19.50;99.90
8953;DHT22;4511;50.890;8.054;2022-09-13T09:04:13;19.60;99.90
8953;DHT22;4511;50.890;8.054;2022-09-13T09:06:41;19.80;99.90
8953;DHT22;4511;50.890;8.054;2022-09-13T09:09:13;19.90;99.90
8953;DHT22;4511;50.890;8.054;2022-09-13T09:11:47;19.90;99.90
8953;DHT22;4511;50.890;8.054;2022-09-13T09:14:21;20.00;99.90
8953;DHT22;4511;50.890;8.054;2022-09-13T09:16:54;20.10;99.90
8953;DHT22;4511;50.890;8.054;2022-09-13T09:19:25;20.30;99.90
8953;DHT22;4511;50.890;8.054;2022-09-13T09:21:54;20.50;99.90
8953;DHT22;4511;50.890;8.054;2022-09-13T09:24:23;20.60;99.90
8953;DHT22;4511;50.890;8.054;2022-09-13T09:26:55;20.70;99.90
8953;DHT22;4511;50.890;8.054;2022-09-13T09:29:25;20.50;99.90
8953;DHT22;4511;50.890;8.054;2022-09-13T09:32:01;20.40;99.90
8953;DHT22;4511;50.890;8.054;2022-09-13T09:34:47;20.50;99.90
8953;DHT22;4511;50.890;8.054;2022-09-13T09:37:18;20.80;99.90
8953;DHT22;4511;50.890;8.054;2022-09-13T09:39:47;21.10;99.90
8953;DHT22;4511;50.890;8.054;2022-09-13T09:42:18;21.30;99.90
8953;DHT22;4511;50.890;8.054;2022-09-13T09:44:49;21.50;99.90
8953;DHT22;4511;50.890;8.054;2022-09-13T09:47:18;21.40;99.90
8953;DHT22;4511;50.890;8.054;2022-09-13T09:49:47;21.50;99.90
8953;DHT22;4511;50.890;8.054;2022-09-13T09:52:37;21.50;99.90
8953;DHT22;4511;50.890;8.054;2022-09-13T09:55:15;21.80;99.90
8953;DHT22;4511;50.890;8.054;2022-09-13T09:57:55;21.80;99.90
8953;DHT22;4511;50.890;8.054;2022-09-13T10:00:24;21.90;99.90
8953;DHT22;4511;50.890;8.054;2022-09-13T10:02:53;21.90;99.90
8953;DHT22;4511;50.890;8.054;2022-09-13T10:05:22;21.90;99.90
8953;DHT22;4511;50.890;8.054;2022-09-13T10:07:59;22.10;99.90
8953;DHT22;4511;50.890;8.054;2022-09-13T10:10:34;22.20;99.90
8953;DHT22;4511;50.890;8.054;2022-09-13T10:13:04;22.40;99.90
8953;DHT22;4511;50.890;8.054;2022-09-13T10:15:33;22.30;99.90
8953;DHT22;4511;50.890;8.054;2022-09-13T10:18:05;22.40;99.90
8953;DHT22;4511;50.890;8.054;2022-09-13T10:20:38;22.60;99.90
8953;DHT22;4511;50.890;8.054;2022-09-13T10:23:11;22.50;99.90
8953;DHT22;4511;50.890;8.054;2022-09-13T10:25:43;22.60;99.90
8953;DHT22;4511;50.890;8.054;2022-09-13T10:28:16;22.70;99.90
8953;DHT22;4511;50.890;8.054;2022-09-13T10:30:46;22.80;99.90
8953;DHT22;4511;50.890;8.054;2022-09-13T10:33:24;22.90;99.90
8953;DHT22;4511;50.890;8.054;2022-09-13T10:35:54;23.20;99.90
8953;DHT22;4511;50.890;8.054;2022-09-13T10:38:25;23.40;99.90
8953;DHT22;4511;50.890;8.054;2022-09-13T10:40:53;23.80;99.90
8953;DHT22;4511;50.890;8.054;2022-09-13T10:43:22;23.90;99.90
8953;DHT22;4511;50.890;8.054;2022-09-13T10:45:50;24.10;99.90
8953;DHT22;4511;50.890;8.054;2022-09-13T10:48:18;24.20;99.90
8953;DHT22;4511;50.890;8.054;2022-09-13T10:51:01;24.30;99.90
8953;DHT22;4511;50.890;8.054;2022-09-13T10:53:36;24.40;99.90
8953;DHT22;4511;50.890;8.054;2022-09-13T10:56:04;24.40;99.90
8953;DHT22;4511;50.890;8.054;2022-09-13T10:58:33;24.50;99.90
8953;DHT22;4511;50.890;8.054;2022-09-13T11:01:34;24.70;99.90
8953;DHT22;4511;50.890;8.054;2022-09-13T11:04:31;24.80;99.90
8953;DHT22;4511;50.890;8.054;2022-09-13T11:07:09;24.80;99.90
8953;DHT22;4511;50.890;8.054;2022-09-13T11:09:43;25.00;99.90
8953;DHT22;4511;50.890;8.054;2022-09-13T11:12:17;25.20;99.90
8953;DHT22;4511;50.890;8.054;2022-09-13T11:14:56;25.30;99.90
8953;DHT22;4511;50.890;8.054;2022-09-13T11:17:35;25.50;99.90
8953;DHT22;4511;50.890;8.054;2022-09-13T11:20:13;25.70;99.90
8953;DHT22;4511;50.890;8.054;2022-09-13T11:22:57;25.70;99.90
8953;DHT22;4511;50.890;8.054;2022-09-13T11:25:47;25.70;99.90
8953;DHT22;4511;50.890;8.054;2022-09-13T11:28:24;25.70;99.90
8953;DHT22;4511;50.890;8.054;2022-09-13T11:31:08;25.30;99.90
8953;DHT22;4511;50.890;8.054;2022-09-13T11:33:47;25.10;99.90
8953;DHT22;4511;50.890;8.054;2022-09-13T11:36:34;24.90;99.90
8953;DHT22;4511;50.890;8.054;2022-09-13T11:39:12;24.70;99.90
8953;DHT22;4511;50.890;8.054;2022-09-13T11:41:48;24.80;99.90
8953;DHT22;4511;50.890;8.054;2022-09-13T11:44:31;24.80;99.90
8953;DHT22;4511;50.890;8.054;2022-09-13T11:47:09;24.70;99.90
8953;DHT22;4511;50.890;8.054;2022-09-13T11:52:44;24.80;99.90
8953;DHT22;4511;50.890;8.054;2022-09-13T11:55:16;25.00;99.90
8953;DHT22;4511;50.890;8.054;2022-09-13T11:57:48;25.30;99.90
8953;DHT22;4511;50.890;8.054;2022-09-13T12:00:20;25.50;99.90
8953;DHT22;4511;50.890;8.054;2022-09-13T12:02:55;25.70;99.90
8953;DHT22;4511;50.890;8.054;2022-09-13T12:05:25;25.40;99.90
8953;DHT22;4511;50.890;8.054;2022-09-13T12:07:55;25.30;99.90
8953;DHT22;4511;50.890;8.054;2022-09-13T12:10:26;25.50;99.90
8953;DHT22;4511;50.890;8.054;2022-09-13T12:12:56;25.40;99.90
8953;DHT22;4511;50.890;8.054;2022-09-13T12:15:32;25.20;99.90
8953;DHT22;4511;50.890;8.054;2022-09-13T12:18:05;25.40;99.90
8953;DHT22;4511;50.890;8.054;2022-09-13T12:20:37;25.60;99.90
8953;DHT22;4511;50.890;8.054;2022-09-13T12:23:10;25.80;99.90
8953;DHT22;4511;50.890;8.054;2022-09-13T12:25:42;26.20;99.90
8953;DHT22;4511;50.890;8.054;2022-09-13T12:28:17;26.20;99.90
8953;DHT22;4511;50.890;8.054;2022-09-13T12:30:49;26.40;99.90
8953;DHT22;4511;50.890;8.054;2022-09-13T12:33:19;26.60;99.90
8953;DHT22;4511;50.890;8.054;2022-09-13T12:35:53;26.50;99.90
8953;DHT22;4511;50.890;8.054;2022-09-13T12:38:48;26.80;99.90
8953;DHT22;4511;50.890;8.054;2022-09-13T12:41:33;27.00;99.90
8953;DHT22;4511;50.890;8.054;2022-09-13T12:44:37;26.90;99.90
8953;DHT22;4511;50.890;8.054;2022-09-13T12:47:32;26.60;99.90
8953;DHT22;4511;50.890;8.054;2022-09-13T12:50:33;26.90;99.90
8953;DHT22;4511;50.890;8.054;2022-09-13T12:53:10;27.60;99.90
8953;DHT22;4511;50.890;8.054;2022-09-13T12:55:51;27.50;99.90
8953;DHT22;4511;50.890;8.054;2022-09-13T12:58:43;27.50;99.90
8953;DHT22;4511;50.890;8.054;2022-09-13T13:01:14;27.00;99.90
8953;DHT22;4511;50.890;8.054;2022-09-13T13:03:47;27.10;99.90
8953;DHT22;4511;50.890;8.054;2022-09-13T13:06:25;27.40;99.90
8953;DHT22;4511;50.890;8.054;2022-09-13T13:08:55;27.70;99.90
8953;DHT22;4511;50.890;8.054;2022-09-13T13:11:24;28.30;99.90
8953;DHT22;4511;50.890;8.054;2022-09-13T13:13:55;28.80;99.90
8953;DHT22;4511;50.890;8.054;2022-09-13T13:16:25;28.10;99.90
8953;DHT22;4511;50.890;8.054;2022-09-13T13:18:54;28.70;99.90
8953;DHT22;4511;50.890;8.054;2022-09-13T13:21:34;29.50;99.90
8953;DHT22;4511;50.890;8.054;2022-09-13T13:24:37;29.60;99.40
8953;DHT22;4511;50.890;8.054;2022-09-13T13:27:38;29.60;98.50
8953;DHT22;4511;50.890;8.054;2022-09-13T13:30:39;29.60;97.90
8953;DHT22;4511;50.890;8.054;2022-09-13T13:33:15;29.70;97.50
8953;DHT22;4511;50.890;8.054;2022-09-13T13:35:43;29.70;96.90
8953;DHT22;4511;50.890;8.054;2022-09-13T13:38:44;30.20;96.70
8953;DHT22;4511;50.890;8.054;2022-09-13T13:41:35;30.00;95.50
8953;DHT22;4511;50.890;8.054;2022-09-13T13:50:13;30.80;94.20
8953;DHT22;4511;50.890;8.054;2022-09-13T13:52:51;30.90;93.60
8953;DHT22;4511;50.890;8.054;2022-09-13T13:55:39;31.10;93.30
8953;DHT22;4511;50.890;8.054;2022-09-13T13:58:26;29.70;93.80
8953;DHT22;4511;50.890;8.054;2022-09-13T14:00:53;30.20;93.90
8953;DHT22;4511;50.890;8.054;2022-09-13T14:03:27;30.80;93.30
8953;DHT22;4511;50.890;8.054;2022-09-13T14:06:01;31.10;92.50
8953;DHT22;4511;50.890;8.054;2022-09-13T14:08:37;30.50;92.80
8953;DHT22;4511;50.890;8.054;2022-09-13T14:11:17;30.80;92.50
8953;DHT22;4511;50.890;8.054;2022-09-13T14:13:58;30.40;91.80
8953;DHT22;4511;50.890;8.054;2022-09-13T14:16:39;29.80;92.80
8953;DHT22;4511;50.890;8.054;2022-09-13T14:19:18;29.90;93.20
8953;DHT22;4511;50.890;8.054;2022-09-13T14:21:45;30.00;92.30
8953;DHT22;4511;50.890;8.054;2022-09-13T14:24:35;29.80;92.80
8953;DHT22;4511;50.890;8.054;2022-09-13T14:27:04;30.00;93.70
8953;DHT22;4511;50.890;8.054;2022-09-13T14:29:31;30.10;93.20
8953;DHT22;4511;50.890;8.054;2022-09-13T14:32:03;30.20;92.60
8953;DHT22;4511;50.890;8.054;2022-09-13T14:34:34;30.80;91.90
8953;DHT22;4511;50.890;8.054;2022-09-13T14:37:04;30.50;91.30
8953;DHT22;4511;50.890;8.054;2022-09-13T14:39:32;30.50;91.90
8953;DHT22;4511;50.890;8.054;2022-09-13T14:42:12;30.60;92.30
8953;DHT22;4511;50.890;8.054;2022-09-13T14:44:44;30.40;91.90
8953;DHT22;4511;50.890;8.054;2022-09-13T14:47:15;29.80;92.30
8953;DHT22;4511;50.890;8.054;2022-09-13T14:49:48;29.70;92.20
8953;DHT22;4511;50.890;8.054;2022-09-13T14:52:20;29.40;93.00
8953;DHT22;4511;50.890;8.054;2022-09-13T14:54:52;30.00;93.20
8953;DHT22;4511;50.890;8.054;2022-09-13T14:57:25;29.30;93.00
8953;DHT22;4511;50.890;8.054;2022-09-13T14:59:56;29.40;93.30
8953;DHT22;4511;50.890;8.054;2022-09-13T15:02:26;29.70;92.70
8953;DHT22;4511;50.890;8.054;2022-09-13T15:04:58;30.10;92.10
8953;DHT22;4511;50.890;8.054;2022-09-13T15:07:28;30.20;92.30
8953;DHT22;4511;50.890;8.054;2022-09-13T15:09:57;30.50;92.00
8953;DHT22;4511;50.890;8.054;2022-09-13T15:12:32;30.70;91.70
8953;DHT22;4511;50.890;8.054;2022-09-13T15:15:21;30.70;91.30
8953;DHT22;4511;50.890;8.054;2022-09-13T15:17:51;30.70;90.70
8953;DHT22;4511;50.890;8.054;2022-09-13T15:20:19;31.60;89.90
8953;DHT22;4511;50.890;8.054;2022-09-13T15:22:46;31.10;87.70
8953;DHT22;4511;50.890;8.054;2022-09-13T15:25:21;30.20;90.30
8953;DHT22;4511;50.890;8.054;2022-09-13T15:27:52;29.50;90.90
8953;DHT22;4511;50.890;8.054;2022-09-13T15:30:22;29.30;91.50
8953;DHT22;4511;50.890;8.054;2022-09-13T15:33:13;29.90;91.60
8953;DHT22;4511;50.890;8.054;2022-09-13T15:35:42;30.50;90.70
8953;DHT22;4511;50.890;8.054;2022-09-13T15:38:33;30.30;90.60
8953;DHT22;4511;50.890;8.054;2022-09-13T15:41:02;29.90;90.80
8953;DHT22;4511;50.890;8.054;2022-09-13T15:43:30;30.10;91.00
8953;DHT22;4511;50.890;8.054;2022-09-13T15:45:58;29.70;90.80
8953;DHT22;4511;50.890;8.054;2022-09-13T15:48:28;28.80;91.70
8953;DHT22;4511;50.890;8.054;2022-09-13T15:51:08;28.50;92.50
8953;DHT22;4511;50.890;8.054;2022-09-13T15:53:36;28.50;92.70
8953;DHT22;4511;50.890;8.054;2022-09-13T15:56:04;28.30;93.70
8953;DHT22;4511;50.890;8.054;2022-09-13T15:58:34;28.00;93.70
8953;DHT22;4511;50.890;8.054;2022-09-13T16:01:01;27.80;94.40
8953;DHT22;4511;50.890;8.054;2022-09-13T16:03:28;27.50;94.50
8953;DHT22;4511;50.890;8.054;2022-09-13T16:05:55;27.20;95.10
8953;DHT22;4511;50.890;8.054;2022-09-13T16:08:22;27.40;95.30
8953;DHT22;4511;50.890;8.054;2022-09-13T16:10:49;27.10;95.40
8953;DHT22;4511;50.890;8.054;2022-09-13T16:13:16;27.00;96.00
8953;DHT22;4511;50.890;8.054;2022-09-13T16:15:44;26.80;96.40
8953;DHT22;4511;50.890;8.054;2022-09-13T16:18:12;26.30;97.10
8953;DHT22;4511;50.890;8.054;2022-09-13T16:20:39;26.40;97.50
8953;DHT22;4511;50.890;8.054;2022-09-13T16:23:06;26.50;97.50
8953;DHT22;4511;50.890;8.054;2022-09-13T16:25:32;26.50;98.00
8953;DHT22;4511;50.890;8.054;2022-09-13T16:28:00;26.40;97.60
8953;DHT22;4511;50.890;8.054;2022-09-13T16:30:27;26.20;98.10
8953;DHT22;4511;50.890;8.054;2022-09-13T16:32:57;26.10;98.80
8953;DHT22;4511;50.890;8.054;2022-09-13T16:35:25;26.10;99.20
8953;DHT22;4511;50.890;8.054;2022-09-13T16:37:54;26.10;99.50
8953;DHT22;4511;50.890;8.054;2022-09-13T16:40:21;26.10;99.40
8953;DHT22;4511;50.890;8.054;2022-09-13T16:42:48;26.10;99.50
8953;DHT22;4511;50.890;8.054;2022-09-13T16:45:16;26.10;99.90
8953;DHT22;4511;50.890;8.054;2022-09-13T16:47:42;26.00;99.90